createdAt,value
2018-11-23T00:01:07.099Z,101743.13
2018-11-23T00:03:37.367Z,101743.38
2018-11-23T00:06:07.433Z,101737.61
2018-11-23T00:08:37.593Z,101749.88
2018-11-23T00:11:07.354Z,101741.17
2018-11-23T00:13:37.094Z,101741.48
2018-11-23T00:16:07.711Z,101742.41
2018-11-23T00:18:37.710Z,101740.73
2018-11-23T00:21:07.425Z,101738.91
2018-11-23T00:23:37.175Z,101749.36
2018-11-23T00:26:07.096Z,101751.98
2018-11-23T00:28:37.641Z,101745.62
2018-11-23T00:31:07.531Z,101749.03
2018-11-23T00:33:37.328Z,101749.56
2018-11-23T00:36:07.712Z,101753.27
2018-11-23T00:38:38.315Z,101753.59
2018-11-23T00:41:08.125Z,101753.53
2018-11-23T00:43:38.060Z,101753.94
2018-11-23T00:46:08.225Z,101760.55
2018-11-23T00:48:38.009Z,101763.17
2018-11-23T00:51:07.739Z,101766.20
2018-11-23T00:53:37.526Z,101767.81
2018-11-23T00:56:07.592Z,101770.03
2018-11-23T00:58:38.047Z,101773.70
2018-11-23T01:01:07.852Z,101771.57
2018-11-23T01:03:37.752Z,101770.75
2018-11-23T01:06:07.507Z,101775.09
2018-11-23T01:08:37.327Z,101771.38
2018-11-23T01:11:07.500Z,101774.83
2018-11-23T01:13:37.452Z,101768.16
2018-11-23T01:16:07.324Z,101772.18
2018-11-23T01:18:37.236Z,101765.82
2018-11-23T01:21:07.281Z,101768.64
2018-11-23T01:23:37.047Z,101770.28
2018-11-23T01:26:07.123Z,101771.18
2018-11-23T01:28:36.817Z,101777.66
2018-11-23T01:31:06.671Z,101777.95
2018-11-23T01:33:36.627Z,101773.30
2018-11-23T01:36:06.810Z,101772.08
2018-11-23T01:38:36.658Z,101772.78
2018-11-23T01:41:06.701Z,101770.97
2018-11-23T01:43:36.398Z,101763.38
2018-11-23T01:46:06.146Z,101763.91
2018-11-23T01:48:35.883Z,101769.87
2018-11-23T01:51:05.879Z,101769.25
2018-11-23T01:53:35.777Z,101768.85
2018-11-23T01:56:05.752Z,101765.20
2018-11-23T01:58:35.496Z,101769.16
2018-11-23T02:01:05.600Z,101772.98
2018-11-23T02:03:35.771Z,101776.55
2018-11-23T02:06:05.951Z,101779.34
2018-11-23T02:08:35.763Z,101775.11
2018-11-23T02:11:05.806Z,101775.31
2018-11-23T02:13:35.599Z,101773.10
2018-11-23T02:16:05.456Z,101775.31
2018-11-23T02:18:35.183Z,101775.81
2018-11-23T02:21:05.599Z,101769.53
2018-11-23T02:23:35.344Z,101775.61
2018-11-23T02:26:05.568Z,101768.95
2018-11-23T02:28:35.401Z,101769.37
2018-11-23T02:31:08.016Z,101767.03
2018-11-23T02:33:40.488Z,101769.45
2018-11-23T02:36:11.164Z,101771.17
2018-11-23T02:38:40.999Z,101763.20
2018-11-23T02:41:10.810Z,101761.89
2018-11-23T02:43:40.644Z,101763.09
2018-11-23T02:46:10.431Z,101762.88
2018-11-23T02:48:41.083Z,101770.80
2018-11-23T02:51:10.826Z,101766.13
2018-11-23T02:53:40.812Z,101762.80
2018-11-23T02:56:10.671Z,101764.31
2018-11-23T02:58:40.561Z,101762.70
2018-11-23T03:01:10.345Z,101758.16
2018-11-23T03:03:40.299Z,101756.03
2018-11-23T03:06:10.979Z,101751.59
2018-11-23T03:08:40.677Z,101758.54
2018-11-23T03:11:10.375Z,101747.12
2018-11-23T03:13:40.441Z,101736.73
2018-11-23T03:16:10.187Z,101743.89
2018-11-23T03:18:40.040Z,101741.87
2018-11-23T03:21:09.819Z,101742.29
2018-11-23T03:23:39.531Z,101742.98
2018-11-23T03:26:09.352Z,101734.30
2018-11-23T03:28:39.079Z,101737.12
2018-11-23T03:31:12.553Z,101735.61
2018-11-23T03:33:38.808Z,101729.86
2018-11-23T03:36:08.487Z,101725.83
2018-11-23T03:38:38.576Z,101724.31
2018-11-23T03:41:08.360Z,101724.02
2018-11-23T03:43:38.063Z,101723.20
2018-11-23T03:46:07.880Z,101726.64
2018-11-23T03:48:37.851Z,101725.42
2018-11-23T03:51:07.938Z,101735.31
2018-11-23T03:53:37.899Z,101728.26
2018-11-23T03:56:08.068Z,101730.36
2018-11-23T03:58:37.991Z,101722.68
2018-11-23T04:01:08.411Z,101729.86
2018-11-23T04:03:38.077Z,101725.30
2018-11-23T04:06:07.819Z,101726.01
2018-11-23T04:08:37.612Z,101728.84
2018-11-23T04:11:07.443Z,101725.19
2018-11-23T04:13:37.232Z,101719.97
2018-11-23T04:16:07.263Z,101727.03
2018-11-23T04:18:37.185Z,101727.64
2018-11-23T04:21:07.455Z,101727.64
2018-11-23T04:23:37.319Z,101720.88
2018-11-23T04:26:07.201Z,101726.22
2018-11-23T04:28:36.932Z,101732.48
2018-11-23T04:31:07.260Z,101715.73
2018-11-23T04:33:37.004Z,101719.27
2018-11-23T04:36:07.006Z,101718.53
2018-11-23T04:38:36.860Z,101721.45
2018-11-23T04:41:06.817Z,101723.25
2018-11-23T04:43:36.615Z,101722.14
2018-11-23T04:46:06.959Z,101713.44
2018-11-23T04:48:36.626Z,101716.47
2018-11-23T04:51:06.735Z,101713.65
2018-11-23T04:53:36.482Z,101722.33
2018-11-23T04:56:06.616Z,101716.05
2018-11-23T04:58:36.471Z,101716.47
2018-11-23T05:01:06.255Z,101709.09
2018-11-23T05:03:36.148Z,101715.16
2018-11-23T05:06:06.271Z,101715.16
2018-11-23T05:08:36.098Z,101716.06
2018-11-23T05:11:06.126Z,101710.12
2018-11-23T05:13:35.911Z,101714.25
2018-11-23T05:16:05.826Z,101713.65
2018-11-23T05:18:35.692Z,101720.33
2018-11-23T05:21:05.804Z,101726.20
2018-11-23T05:23:35.763Z,101721.03
2018-11-23T05:26:06.176Z,101717.59
2018-11-23T05:28:35.911Z,101721.85
2018-11-23T05:31:06.416Z,101728.98
2018-11-23T05:33:36.120Z,101720.95
2018-11-23T05:36:06.057Z,101723.16
2018-11-23T05:38:35.774Z,101719.03
2018-11-23T05:41:05.607Z,101711.98
2018-11-23T05:43:35.483Z,101709.64
2018-11-23T05:46:05.662Z,101700.98
2018-11-23T05:48:35.546Z,101698.45
2018-11-23T05:51:05.809Z,101693.30
2018-11-23T05:53:35.568Z,101690.66
2018-11-23T05:56:05.586Z,101681.47
2018-11-23T05:58:35.429Z,101680.86
2018-11-23T06:01:05.326Z,101680.27
2018-11-23T06:03:35.125Z,101682.38
2018-11-23T06:06:06.562Z,101684.91
2018-11-23T06:08:36.477Z,101678.74
2018-11-23T06:11:07.179Z,101670.83
2018-11-23T06:13:37.052Z,101672.96
2018-11-23T06:16:07.154Z,101677.44
2018-11-23T06:18:36.868Z,101677.73
2018-11-23T06:21:06.816Z,101673.30
2018-11-23T06:23:36.556Z,101667.64
2018-11-23T06:26:27.759Z,101664.63
2018-11-23T06:28:57.636Z,101675.62
2018-11-23T06:31:27.414Z,101678.16
2018-11-23T06:33:57.239Z,101678.65
2018-11-23T06:36:27.091Z,101686.02
2018-11-23T06:38:56.884Z,101694.61
2018-11-23T06:41:26.769Z,101696.45
2018-11-23T06:43:56.695Z,101697.23
2018-11-23T06:46:26.641Z,101692.38
2018-11-23T06:48:56.733Z,101689.77
2018-11-23T06:51:26.421Z,101689.48
2018-11-23T06:53:56.309Z,101691.37
2018-11-23T06:56:26.078Z,101691.78
2018-11-23T06:58:55.817Z,101686.03
2018-11-23T07:01:25.647Z,101689.06
2018-11-23T07:03:55.546Z,101697.14
2018-11-23T07:06:25.351Z,101695.81
2018-11-23T07:08:55.296Z,101701.37
2018-11-23T07:11:25.179Z,101701.28
2018-11-23T07:13:54.876Z,101695.41
2018-11-23T07:16:24.758Z,101702.89
2018-11-23T07:18:54.467Z,101702.08
2018-11-23T07:21:24.340Z,101701.88
2018-11-23T07:23:54.153Z,101709.38
2018-11-23T07:26:23.946Z,101714.09
2018-11-23T07:28:53.885Z,101712.39
2018-11-23T07:31:23.687Z,101707.75
2018-11-23T07:33:54.371Z,101713.50
2018-11-23T07:36:25.063Z,101716.53
2018-11-23T07:38:54.878Z,101714.69
2018-11-23T07:41:41.506Z,101721.28
2018-11-23T07:44:11.284Z,101714.11
2018-11-23T07:46:40.995Z,101707.23
2018-11-23T07:49:10.912Z,101700.45
2018-11-23T07:51:40.796Z,101703.47
2018-11-23T07:54:10.626Z,101713.16
2018-11-23T07:56:40.490Z,101719.09
2018-11-23T07:59:10.537Z,101711.84
2018-11-23T08:01:40.509Z,101703.70
2018-11-23T08:04:10.239Z,101695.70
2018-11-23T08:06:39.973Z,101702.09
2018-11-23T08:09:10.843Z,101698.33
2018-11-23T08:11:40.530Z,101688.30
2018-11-23T08:14:10.408Z,101686.00
2018-11-23T08:16:40.107Z,101682.95
2018-11-23T08:19:09.983Z,101694.67
2018-11-23T08:21:40.100Z,101691.34
2018-11-23T08:24:10.188Z,101695.13
2018-11-23T08:26:40.039Z,101705.33
2018-11-23T08:29:09.777Z,101709.66
2018-11-23T08:31:40.204Z,101710.98
2018-11-23T08:34:10.044Z,101704.80
2018-11-23T08:36:40.419Z,101694.03
2018-11-23T08:39:11.599Z,101691.89
2018-11-23T08:41:41.664Z,101688.98
2018-11-23T08:44:11.384Z,101691.55
2018-11-23T08:46:41.197Z,101691.13
2018-11-23T08:49:10.969Z,101691.78
2018-11-23T08:51:40.865Z,101688.30
2018-11-23T08:54:10.696Z,101685.98
2018-11-23T08:56:40.606Z,101695.96
2018-11-23T08:59:10.460Z,101694.86
2018-11-23T09:01:40.419Z,101699.88
2018-11-23T09:04:10.136Z,101701.50
2018-11-23T09:06:40.131Z,101700.26
2018-11-23T09:09:11.578Z,101699.00
2018-11-23T09:11:41.473Z,101692.94
2018-11-23T09:14:11.930Z,101688.41
2018-11-23T09:16:41.688Z,101692.34
2018-11-23T09:19:11.562Z,101695.30
2018-11-23T09:21:41.307Z,101694.17
2018-11-23T09:24:11.246Z,101691.03
2018-11-23T09:26:41.940Z,101682.45
2018-11-23T09:29:12.024Z,101683.09
2018-11-23T09:31:41.720Z,101687.41
2018-11-23T09:34:11.671Z,101689.09
2018-11-23T09:36:41.466Z,101695.83
2018-11-23T09:39:11.383Z,101697.28
2018-11-23T09:41:41.211Z,101688.53
2018-11-23T09:44:10.927Z,101684.34
2018-11-23T09:46:40.783Z,101685.80
2018-11-23T09:49:10.556Z,101676.94
2018-11-23T09:51:40.331Z,101675.56
2018-11-23T09:54:10.230Z,101660.77
2018-11-23T09:56:40.001Z,101665.18
2018-11-23T09:59:09.775Z,101669.03
2018-11-23T10:01:39.631Z,101655.14
2018-11-23T10:04:09.445Z,101651.98
2018-11-23T10:06:39.232Z,101651.83
2018-11-23T10:09:09.544Z,101650.39
2018-11-23T10:11:39.375Z,101646.61
2018-11-23T10:14:09.093Z,101644.25
2018-11-23T10:16:38.875Z,101638.97
2018-11-23T10:19:14.214Z,101646.66
2018-11-23T10:21:43.930Z,101650.00
2018-11-23T10:24:13.762Z,101645.38
2018-11-23T10:26:43.472Z,101641.17
2018-11-23T10:29:13.320Z,101638.44
2018-11-23T10:31:43.031Z,101632.55
2018-11-23T10:34:12.903Z,101628.23
2018-11-23T10:36:42.843Z,101626.53
2018-11-23T10:39:12.611Z,101627.28
2018-11-23T10:41:42.406Z,101625.66
2018-11-23T10:44:12.643Z,101622.20
2018-11-23T10:46:42.574Z,101618.20
2018-11-23T10:49:12.342Z,101608.52
2018-11-23T10:51:42.199Z,101607.66
2018-11-23T10:54:12.032Z,101605.94
2018-11-23T10:56:42.088Z,101596.53
2018-11-23T10:59:11.946Z,101593.66
2018-11-23T11:01:47.504Z,101603.15
2018-11-23T11:04:22.355Z,101597.25
2018-11-23T11:06:53.582Z,101594.59
2018-11-23T11:09:23.419Z,101586.66
2018-11-23T11:11:53.142Z,101583.14
2018-11-23T11:14:22.995Z,101581.63
2018-11-23T11:16:52.836Z,101580.30
2018-11-23T11:19:22.634Z,101570.52
2018-11-23T11:21:52.455Z,101569.05
2018-11-23T11:24:22.355Z,101564.62
2018-11-23T11:26:52.212Z,101560.59
2018-11-23T11:29:22.092Z,101559.56
2018-11-23T11:31:55.378Z,101555.27
2018-11-23T11:34:25.328Z,101550.59
2018-11-23T11:36:55.128Z,101548.19
2018-11-23T11:39:24.992Z,101538.69
2018-11-23T11:41:54.901Z,101537.80
2018-11-23T11:44:25.020Z,101536.28
2018-11-23T11:46:54.852Z,101536.03
2018-11-23T11:49:24.664Z,101537.03
2018-11-23T11:51:54.516Z,101535.23
2018-11-23T11:54:24.296Z,101531.82
2018-11-23T11:56:54.254Z,101533.44
2018-11-23T11:59:24.031Z,101531.93
2018-11-23T12:01:53.927Z,101526.70
2018-11-23T12:04:23.649Z,101521.91
2018-11-23T12:06:54.298Z,101512.70
2018-11-23T12:09:24.134Z,101509.73
2018-11-23T12:11:53.911Z,101507.58
2018-11-23T12:14:24.848Z,101499.42
2018-11-23T12:16:54.808Z,101501.84
2018-11-23T12:19:24.724Z,101495.95
2018-11-23T12:21:54.664Z,101491.35
2018-11-23T12:24:25.127Z,101488.08
2018-11-23T12:26:54.916Z,101491.41
2018-11-23T12:29:24.883Z,101480.50
2018-11-23T12:31:54.790Z,101480.70
2018-11-23T12:34:24.617Z,101477.53
2018-11-23T12:36:54.496Z,101470.98
2018-11-23T12:39:24.899Z,101463.58
2018-11-23T12:41:54.744Z,101466.57
2018-11-23T12:44:24.531Z,101464.73
2018-11-23T12:46:54.520Z,101460.57
2018-11-23T12:49:24.495Z,101464.33
2018-11-23T12:51:55.133Z,101458.72
2018-11-23T12:54:24.919Z,101459.91
2018-11-23T12:56:54.612Z,101452.19
2018-11-23T12:59:24.353Z,101446.39
2018-11-23T13:01:54.323Z,101446.39
2018-11-23T13:04:24.132Z,101438.73
2018-11-23T13:06:54.015Z,101430.80
2018-11-23T13:09:23.783Z,101431.40
2018-11-23T13:11:54.196Z,101430.12
2018-11-23T13:14:24.351Z,101431.32
2018-11-23T13:16:54.203Z,101424.16
2018-11-23T13:19:24.323Z,101426.83
2018-11-23T13:21:54.230Z,101420.31
2018-11-23T13:24:24.117Z,101413.92
2018-11-23T13:26:55.025Z,101413.41
2018-11-23T13:29:26.058Z,101418.74
2018-11-23T13:31:55.804Z,101417.41
2018-11-23T13:34:25.519Z,101412.63
2018-11-23T13:36:55.256Z,101406.22
2018-11-23T13:39:25.234Z,101407.00
2018-11-23T13:41:55.131Z,101402.21
2018-11-23T13:44:24.964Z,101401.15
2018-11-23T13:46:55.068Z,101395.82
2018-11-23T13:49:25.037Z,101394.48
2018-11-23T13:51:54.831Z,101399.55
2018-11-23T13:54:24.833Z,101389.94
2018-11-23T13:56:54.580Z,101388.27
2018-11-23T13:59:24.255Z,101388.56
2018-11-23T14:01:54.879Z,101386.42
2018-11-23T14:04:24.853Z,101388.48
2018-11-23T14:06:54.671Z,101384.50
2018-11-23T14:09:25.144Z,101390.08
2018-11-23T14:11:54.956Z,101387.94
2018-11-23T14:14:24.800Z,101387.06
2018-11-23T14:16:54.535Z,101383.88
2018-11-23T14:19:24.324Z,101383.62
2018-11-23T14:21:54.062Z,101381.22
2018-11-23T14:24:23.837Z,101379.33
2018-11-23T14:26:53.827Z,101381.47
2018-11-23T14:29:23.753Z,101373.48
2018-11-23T14:31:53.779Z,101372.91
2018-11-23T14:34:23.617Z,101363.53
2018-11-23T14:36:53.535Z,101356.36
2018-11-23T14:39:23.495Z,101354.20
2018-11-23T14:41:53.268Z,101349.17
2018-11-23T14:44:23.120Z,101347.33
2018-11-23T14:46:52.844Z,101345.75
2018-11-23T14:49:22.689Z,101347.86
2018-11-23T14:51:52.451Z,101346.00
2018-11-23T14:54:22.456Z,101350.73
2018-11-23T14:56:52.253Z,101340.61
2018-11-23T14:59:22.131Z,101342.20
2018-11-23T15:01:52.293Z,101341.34
2018-11-23T15:04:22.594Z,101344.80
2018-11-23T15:06:53.143Z,101345.06
2018-11-23T15:09:22.934Z,101347.42
2018-11-23T15:11:52.915Z,101348.72
2018-11-23T15:14:22.632Z,101341.28
2018-11-23T15:16:52.676Z,101349.44
2018-11-23T15:19:22.521Z,101343.03
2018-11-23T15:21:52.957Z,101341.67
2018-11-23T15:24:22.783Z,101336.06
2018-11-23T15:26:52.684Z,101338.17
2018-11-23T15:29:22.736Z,101339.50
2018-11-23T15:31:52.611Z,101341.56
2018-11-23T15:34:22.461Z,101341.48
2018-11-23T15:36:52.827Z,101341.92
2018-11-23T15:39:22.840Z,101354.16
2018-11-23T15:41:52.786Z,101351.72
2018-11-23T15:44:22.566Z,101353.52
2018-11-23T15:46:52.512Z,101355.19
2018-11-23T15:49:22.211Z,101353.22
2018-11-23T15:51:52.184Z,101348.20
2018-11-23T15:54:22.020Z,101350.47
2018-11-23T15:56:51.894Z,101349.45
2018-11-23T15:59:22.212Z,101349.45
2018-11-23T16:01:52.647Z,101348.29
2018-11-23T16:04:22.419Z,101349.18
2018-11-23T16:06:52.339Z,101354.88
2018-11-23T16:09:22.188Z,101351.42
2018-11-23T16:11:51.936Z,101349.08
2018-11-23T16:14:22.604Z,101350.76
2018-11-23T16:16:52.494Z,101351.63
2018-11-23T16:19:22.541Z,101349.13
2018-11-23T16:21:52.398Z,101338.21
2018-11-23T16:24:22.737Z,101342.46
2018-11-23T16:26:52.565Z,101341.89
2018-11-23T16:29:22.349Z,101345.87
2018-11-23T16:31:52.157Z,101341.77
2018-11-23T16:34:22.414Z,101334.34
2018-11-23T16:36:53.333Z,101343.75
2018-11-23T16:39:23.208Z,101337.49
2018-11-23T16:41:53.139Z,101342.75
2018-11-23T16:44:23.431Z,101336.16
2018-11-23T16:46:53.159Z,101336.62
2018-11-23T16:49:23.303Z,101331.52
2018-11-23T16:51:53.239Z,101328.22
2018-11-23T16:54:23.118Z,101328.16
2018-11-23T16:56:53.033Z,101326.58
2018-11-23T16:59:23.308Z,101317.50
2018-11-23T17:01:53.356Z,101315.83
2018-11-23T17:04:23.595Z,101324.30
2018-11-23T17:06:53.471Z,101320.52
2018-11-23T17:09:23.483Z,101322.95
2018-11-23T17:11:53.257Z,101317.09
2018-11-23T17:14:23.151Z,101314.13
2018-11-23T17:16:52.925Z,101310.63
2018-11-23T17:19:22.746Z,101320.83
2018-11-23T17:21:52.449Z,101323.48
2018-11-23T17:24:22.373Z,101322.77
2018-11-23T17:26:52.246Z,101321.53
2018-11-23T17:29:23.162Z,101320.14
2018-11-23T17:31:52.007Z,101314.27
2018-11-23T17:34:22.968Z,101317.72
2018-11-23T17:36:53.592Z,101323.02
2018-11-23T17:39:23.369Z,101318.62
2018-11-23T17:41:53.255Z,101327.26
2018-11-23T17:44:23.769Z,101329.59
2018-11-23T17:46:53.883Z,101322.08
2018-11-23T17:49:23.748Z,101319.31
2018-11-23T17:51:53.596Z,101323.16
2018-11-23T17:54:23.409Z,101320.26
2018-11-23T17:56:53.170Z,101311.13
2018-11-23T17:59:22.965Z,101308.20
2018-11-23T18:01:52.855Z,101304.75
2018-11-23T18:04:22.579Z,101295.91
2018-11-23T18:06:52.360Z,101292.49
2018-11-23T18:09:23.516Z,101294.70
2018-11-23T18:11:53.231Z,101293.45
2018-11-23T18:14:23.225Z,101294.16
2018-11-23T18:16:53.203Z,101293.95
2018-11-23T18:19:23.403Z,101293.59
2018-11-23T18:21:53.347Z,101290.00
2018-11-23T18:24:23.407Z,101283.72
2018-11-23T18:26:53.346Z,101278.91
2018-11-23T18:29:23.393Z,101282.15
2018-11-23T18:31:53.194Z,101271.63
2018-11-23T18:34:23.264Z,101268.34
2018-11-23T18:36:53.293Z,101269.31
2018-11-23T18:39:23.423Z,101261.84
2018-11-23T18:41:53.229Z,101262.62
2018-11-23T18:44:23.144Z,101257.02
2018-11-23T18:46:53.153Z,101250.36
2018-11-23T18:49:23.006Z,101253.94
2018-11-23T18:51:52.764Z,101248.84
2018-11-23T18:54:22.641Z,101246.87
2018-11-23T18:56:52.590Z,101241.77
2018-11-23T18:59:22.236Z,101239.30
2018-11-23T19:01:52.133Z,101231.27
2018-11-23T19:04:21.882Z,101232.05
2018-11-23T19:06:51.688Z,101227.39
2018-11-23T19:09:21.797Z,101221.17
2018-11-23T19:11:51.717Z,101215.27
2018-11-23T19:14:21.606Z,101214.26
2018-11-23T19:16:51.519Z,101216.32
2018-11-23T19:19:21.494Z,101209.46
2018-11-23T19:21:51.420Z,101210.72
2018-11-23T19:24:21.299Z,101207.12
2018-11-23T19:26:51.264Z,101201.41
2018-11-23T19:29:21.252Z,101193.55
2018-11-23T19:31:51.219Z,101196.80
2018-11-23T19:34:21.028Z,101206.50
2018-11-23T19:36:51.002Z,101198.36
2018-11-23T19:39:21.070Z,101205.23
2018-11-23T19:41:50.845Z,101209.38
2018-11-23T19:44:20.807Z,101201.27
2018-11-23T19:46:50.756Z,101204.06
2018-11-23T19:49:20.610Z,101196.73
2018-11-23T19:51:50.730Z,101196.21
2018-11-23T19:54:20.687Z,101193.73
2018-11-23T19:56:50.842Z,101193.05
2018-11-23T19:59:20.620Z,101193.80
2018-11-23T20:01:50.722Z,101196.49
2018-11-23T20:04:20.613Z,101199.14
2018-11-23T20:06:50.809Z,101198.82
2018-11-23T20:09:20.610Z,101185.20
2018-11-23T20:11:50.563Z,101184.30
2018-11-23T20:14:20.655Z,101187.58
2018-11-23T20:16:50.640Z,101187.04
2018-11-23T20:19:20.522Z,101185.64
2018-11-23T20:21:50.513Z,101182.27
2018-11-23T20:24:20.376Z,101181.41
2018-11-23T20:26:51.257Z,101183.48
2018-11-23T20:29:21.095Z,101176.72
2018-11-23T20:31:51.156Z,101178.23
2018-11-23T20:34:22.027Z,101173.35
2018-11-23T20:36:51.920Z,101164.27
2018-11-23T20:39:21.759Z,101169.71
2018-11-23T20:41:52.283Z,101172.68
2018-11-23T20:44:22.324Z,101166.16
2018-11-23T20:46:52.265Z,101171.37
2018-11-23T20:49:22.126Z,101176.20
2018-11-23T20:51:52.059Z,101167.29
2018-11-23T20:54:21.872Z,101168.80
2018-11-23T20:56:51.741Z,101151.52
2018-11-23T20:59:21.782Z,101152.70
2018-11-23T21:01:51.758Z,101149.80
2018-11-23T21:04:21.725Z,101161.00
2018-11-23T21:06:51.542Z,101141.28
2018-11-23T21:09:21.322Z,101145.91
2018-11-23T21:11:51.216Z,101152.11
2018-11-23T21:14:21.103Z,101151.61
2018-11-23T21:16:50.993Z,101137.20
2018-11-23T21:19:20.950Z,101135.27
2018-11-23T21:21:50.739Z,101138.08
2018-11-23T21:24:20.816Z,101134.64
2018-11-23T21:26:50.696Z,101129.25
2018-11-23T21:29:20.461Z,101127.59
2018-11-23T21:31:50.492Z,101116.61
2018-11-23T21:34:20.726Z,101116.80
2018-11-23T21:36:50.662Z,101120.27
2018-11-23T21:39:20.662Z,101118.12
2018-11-23T21:41:50.509Z,101112.92
2018-11-23T21:44:20.497Z,101108.45
2018-11-23T21:46:50.284Z,101098.50
2018-11-23T21:49:20.063Z,101094.36
2018-11-23T21:51:49.860Z,101098.75
2018-11-23T21:54:19.894Z,101104.33
2018-11-23T21:56:49.803Z,101098.17
2018-11-23T21:59:19.583Z,101094.54
2018-11-23T22:01:49.560Z,101094.76
2018-11-23T22:04:19.440Z,101093.89
2018-11-23T22:06:49.548Z,101100.20
2018-11-23T22:09:19.524Z,101096.77
2018-11-23T22:11:52.450Z,101093.48
2018-11-23T22:14:19.379Z,101092.08
2018-11-23T22:16:49.106Z,101093.11
2018-11-23T22:19:19.468Z,101083.33
2018-11-23T22:21:49.432Z,101085.30
2018-11-23T22:24:20.194Z,101084.61
2018-11-23T22:26:50.262Z,101085.95
2018-11-23T22:29:20.199Z,101086.10
2018-11-23T22:31:50.075Z,101085.35
2018-11-23T22:34:19.929Z,101088.69
2018-11-23T22:36:50.038Z,101080.98
2018-11-23T22:39:20.262Z,101083.22
2018-11-23T22:41:50.060Z,101089.59
2018-11-23T22:44:20.304Z,101077.27
2018-11-23T22:46:50.280Z,101077.11
2018-11-23T22:49:20.249Z,101067.06
2018-11-23T22:51:50.548Z,101062.79
2018-11-23T22:54:20.398Z,101063.50
2018-11-23T22:56:50.271Z,101068.72
2018-11-23T22:59:20.334Z,101063.20
2018-11-23T23:01:50.229Z,101060.60
2018-11-23T23:04:20.146Z,101062.25
2018-11-23T23:06:50.512Z,101046.45
2018-11-23T23:09:20.257Z,101051.16
2018-11-23T23:11:50.045Z,101040.82
2018-11-23T23:14:20.906Z,101040.82
2018-11-23T23:16:50.669Z,101034.41
2018-11-23T23:19:20.579Z,101034.62
2018-11-23T23:21:50.465Z,101030.88
2018-11-23T23:24:20.323Z,101029.04
2018-11-23T23:26:50.406Z,101024.91
2018-11-23T23:29:20.144Z,101027.81
2018-11-23T23:31:50.262Z,101027.03
2018-11-23T23:34:20.073Z,101024.40
2018-11-23T23:36:49.893Z,101023.26
2018-11-23T23:39:19.773Z,101017.00
2018-11-23T23:41:49.610Z,101021.84
2018-11-23T23:44:19.319Z,101014.23
2018-11-23T23:46:49.106Z,101021.34
2018-11-23T23:49:18.931Z,101020.84
2018-11-23T23:51:48.824Z,101016.38
2018-11-23T23:54:18.804Z,101014.80
2018-11-23T23:56:48.681Z,101014.55
2018-11-23T23:59:18.651Z,101009.23
